sensor_id;sensor_type;location;lat;lon;timestamp;P1;durP1;ratioP1;P2;durP2;ratioP2
65533;SDS011;53640;55.838;37.184;2023-05-10T00:19:51;4.70;;;2.90;;
65533;SDS011;53640;55.838;37.184;2023-05-10T00:22:24;4.28;;;2.75;;
65533;SDS011;53640;55.838;37.184;2023-05-10T00:24:54;6.20;;;3.30;;
65533;SDS011;53640;55.838;37.184;2023-05-10T00:27:33;8.35;;;3.47;;
65533;SDS011;53640;55.838;37.184;2023-05-10T00:34:39;5.25;;;3.25;;
65533;SDS011;53640;55.838;37.184;2023-05-10T00:45:46;6.72;;;3.40;;
65533;SDS011;53640;55.838;37.184;2023-05-10T00:49:52;7.35;;;3.55;;
65533;SDS011;53640;55.838;37.184;2023-05-10T00:53:04;9.02;;;3.70;;
65533;SDS011;53640;55.838;37.184;2023-05-10T00:55:47;4.85;;;3.33;;
65533;SDS011;53640;55.838;37.184;2023-05-10T00:58:27;5.97;;;3.90;;
65533;SDS011;53640;55.838;37.184;2023-05-10T01:00:57;7.93;;;3.63;;
65533;SDS011;53640;55.838;37.184;2023-05-10T01:03:25;7.93;;;4.75;;
65533;SDS011;53640;55.838;37.184;2023-05-10T01:05:52;8.88;;;4.47;;
65533;SDS011;53640;55.838;37.184;2023-05-10T01:08:18;10.52;;;4.82;;
65533;SDS011;53640;55.838;37.184;2023-05-10T01:10:45;8.93;;;4.70;;
65533;SDS011;53640;55.838;37.184;2023-05-10T01:13:13;6.32;;;4.05;;
65533;SDS011;53640;55.838;37.184;2023-05-10T01:15:44;6.30;;;3.88;;
65533;SDS011;53640;55.838;37.184;2023-05-10T01:18:12;6.78;;;3.67;;
65533;SDS011;53640;55.838;37.184;2023-05-10T01:20:40;6.68;;;4.20;;
65533;SDS011;53640;55.838;37.184;2023-05-10T01:23:27;5.82;;;3.63;;
65533;SDS011;53640;55.838;37.184;2023-05-10T01:34:25;6.43;;;4.18;;
65533;SDS011;53640;55.838;37.184;2023-05-10T01:37:04;7.20;;;3.63;;
65533;SDS011;53640;55.838;37.184;2023-05-10T01:42:08;8.30;;;4.63;;
65533;SDS011;53640;55.838;37.184;2023-05-10T01:44:42;8.45;;;4.28;;
65533;SDS011;53640;55.838;37.184;2023-05-10T01:47:17;7.00;;;4.30;;
65533;SDS011;53640;55.838;37.184;2023-05-10T01:49:53;10.00;;;4.85;;
65533;SDS011;53640;55.838;37.184;2023-05-10T01:52:36;6.18;;;4.30;;
65533;SDS011;53640;55.838;37.184;2023-05-10T01:55:13;5.60;;;3.80;;
65533;SDS011;53640;55.838;37.184;2023-05-10T01:57:42;4.85;;;3.45;;
65533;SDS011;53640;55.838;37.184;2023-05-10T02:00:10;5.70;;;3.33;;
65533;SDS011;53640;55.838;37.184;2023-05-10T02:02:44;7.90;;;3.80;;
65533;SDS011;53640;55.838;37.184;2023-05-10T02:05:13;7.70;;;3.60;;
65533;SDS011;53640;55.838;37.184;2023-05-10T02:07:41;10.50;;;4.40;;
65533;SDS011;53640;55.838;37.184;2023-05-10T02:10:10;6.57;;;4.50;;
65533;SDS011;53640;55.838;37.184;2023-05-10T02:12:43;7.95;;;4.10;;
65533;SDS011;53640;55.838;37.184;2023-05-10T02:15:11;6.20;;;3.70;;
65533;SDS011;53640;55.838;37.184;2023-05-10T02:17:41;6.18;;;3.88;;
65533;SDS011;53640;55.838;37.184;2023-05-10T02:20:09;4.53;;;3.28;;
65533;SDS011;53640;55.838;37.184;2023-05-10T02:22:41;4.10;;;3.15;;
65533;SDS011;53640;55.838;37.184;2023-05-10T02:25:09;5.65;;;3.33;;
65533;SDS011;53640;55.838;37.184;2023-05-10T02:27:37;6.43;;;3.88;;
65533;SDS011;53640;55.838;37.184;2023-05-10T02:30:04;3.17;;;2.88;;
65533;SDS011;53640;55.838;37.184;2023-05-10T02:32:36;5.50;;;3.30;;
65533;SDS011;53640;55.838;37.184;2023-05-10T02:35:04;4.30;;;2.80;;
65533;SDS011;53640;55.838;37.184;2023-05-10T02:37:31;5.43;;;3.33;;
65533;SDS011;53640;55.838;37.184;2023-05-10T02:40:00;5.45;;;3.42;;
65533;SDS011;53640;55.838;37.184;2023-05-10T02:42:31;4.47;;;3.67;;
65533;SDS011;53640;55.838;37.184;2023-05-10T02:45:05;8.50;;;3.80;;
65533;SDS011;53640;55.838;37.184;2023-05-10T02:47:36;5.07;;;3.60;;
65533;SDS011;53640;55.838;37.184;2023-05-10T02:50:05;6.78;;;3.88;;
65533;SDS011;53640;55.838;37.184;2023-05-10T02:52:39;5.97;;;3.50;;
65533;SDS011;53640;55.838;37.184;2023-05-10T02:55:09;3.58;;;2.83;;
65533;SDS011;53640;55.838;37.184;2023-05-10T02:57:41;4.22;;;3.13;;
65533;SDS011;53640;55.838;37.184;2023-05-10T03:02:38;5.93;;;4.15;;
65533;SDS011;53640;55.838;37.184;2023-05-10T03:05:05;7.78;;;4.40;;
65533;SDS011;53640;55.838;37.184;2023-05-10T03:07:32;7.47;;;4.30;;
65533;SDS011;53640;55.838;37.184;2023-05-10T03:09:59;9.90;;;4.85;;
65533;SDS011;53640;55.838;37.184;2023-05-10T03:18:09;8.65;;;4.93;;
65533;SDS011;53640;55.838;37.184;2023-05-10T03:20:42;9.40;;;5.47;;
65533;SDS011;53640;55.838;37.184;2023-05-10T03:23:21;8.43;;;5.10;;
65533;SDS011;53640;55.838;37.184;2023-05-10T03:26:00;9.13;;;4.82;;
65533;SDS011;53640;55.838;37.184;2023-05-10T03:28:29;7.10;;;4.00;;
65533;SDS011;53640;55.838;37.184;2023-05-10T03:30:58;6.57;;;4.20;;
65533;SDS011;53640;55.838;37.184;2023-05-10T03:33:30;8.93;;;4.65;;
65533;SDS011;53640;55.838;37.184;2023-05-10T03:36:00;7.93;;;4.50;;
65533;SDS011;53640;55.838;37.184;2023-05-10T03:38:27;6.72;;;4.35;;
65533;SDS011;53640;55.838;37.184;2023-05-10T03:40:54;5.40;;;3.40;;
65533;SDS011;53640;55.838;37.184;2023-05-10T03:43:22;4.97;;;3.72;;
65533;SDS011;53640;55.838;37.184;2023-05-10T03:45:48;6.82;;;4.18;;
65533;SDS011;53640;55.838;37.184;2023-05-10T03:48:15;8.52;;;4.25;;
65533;SDS011;53640;55.838;37.184;2023-05-10T03:50:42;7.05;;;3.80;;
65533;SDS011;53640;55.838;37.184;2023-05-10T03:53:09;7.75;;;3.85;;
65533;SDS011;53640;55.838;37.184;2023-05-10T03:55:35;6.68;;;3.45;;
65533;SDS011;53640;55.838;37.184;2023-05-10T04:00:37;6.65;;;3.38;;
65533;SDS011;53640;55.838;37.184;2023-05-10T04:03:10;9.60;;;4.15;;
65533;SDS011;53640;55.838;37.184;2023-05-10T04:05:40;7.20;;;3.47;;
65533;SDS011;53640;55.838;37.184;2023-05-10T04:08:06;6.30;;;4.10;;
65533;SDS011;53640;55.838;37.184;2023-05-10T04:10:33;7.65;;;3.40;;
65533;SDS011;53640;55.838;37.184;2023-05-10T04:13:00;5.28;;;3.70;;
65533;SDS011;53640;55.838;37.184;2023-05-10T04:15:27;5.72;;;3.65;;
65533;SDS011;53640;55.838;37.184;2023-05-10T04:17:53;6.15;;;3.53;;
65533;SDS011;53640;55.838;37.184;2023-05-10T04:20:21;4.90;;;3.63;;
65533;SDS011;53640;55.838;37.184;2023-05-10T04:22:50;5.55;;;3.70;;
65533;SDS011;53640;55.838;37.184;2023-05-10T04:25:21;4.30;;;3.20;;
65533;SDS011;53640;55.838;37.184;2023-05-10T04:27:58;6.32;;;3.60;;
65533;SDS011;53640;55.838;37.184;2023-05-10T04:30:25;6.53;;;3.60;;
65533;SDS011;53640;55.838;37.184;2023-05-10T04:33:00;4.88;;;3.67;;
65533;SDS011;53640;55.838;37.184;2023-05-10T04:39:11;7.22;;;2.83;;
65533;SDS011;53640;55.838;37.184;2023-05-10T04:41:55;8.73;;;3.05;;
65533;SDS011;53640;55.838;37.184;2023-05-10T04:44:22;3.90;;;2.90;;
65533;SDS011;53640;55.838;37.184;2023-05-10T04:47:01;5.75;;;3.45;;
65533;SDS011;53640;55.838;37.184;2023-05-10T04:49:29;7.53;;;3.20;;
65533;SDS011;53640;55.838;37.184;2023-05-10T04:51:55;5.45;;;3.00;;
65533;SDS011;53640;55.838;37.184;2023-05-10T04:54:22;5.75;;;3.50;;
65533;SDS011;53640;55.838;37.184;2023-05-10T04:56:54;5.75;;;3.00;;
65533;SDS011;53640;55.838;37.184;2023-05-10T04:59:22;4.07;;;2.40;;
65533;SDS011;53640;55.838;37.184;2023-05-10T05:01:49;3.95;;;2.60;;
65533;SDS011;53640;55.838;37.184;2023-05-10T05:04:24;3.63;;;2.13;;
65533;SDS011;53640;55.838;37.184;2023-05-10T05:06:51;4.65;;;2.45;;
65533;SDS011;53640;55.838;37.184;2023-05-10T05:09:17;4.30;;;2.60;;
65533;SDS011;53640;55.838;37.184;2023-05-10T05:11:46;3.50;;;2.42;;
65533;SDS011;53640;55.838;37.184;2023-05-10T05:14:13;2.70;;;2.45;;
65533;SDS011;53640;55.838;37.184;2023-05-10T05:16:48;8.25;;;2.92;;
65533;SDS011;53640;55.838;37.184;2023-05-10T05:19:14;4.07;;;3.03;;
65533;SDS011;53640;55.838;37.184;2023-05-10T05:21:41;3.70;;;2.47;;
65533;SDS011;53640;55.838;37.184;2023-05-10T05:24:08;5.47;;;3.10;;
65533;SDS011;53640;55.838;37.184;2023-05-10T05:26:36;6.88;;;2.70;;
65533;SDS011;53640;55.838;37.184;2023-05-10T05:29:06;5.55;;;2.58;;
65533;SDS011;53640;55.838;37.184;2023-05-10T05:31:33;5.20;;;3.10;;
65533;SDS011;53640;55.838;37.184;2023-05-10T05:33:59;3.97;;;2.55;;
65533;SDS011;53640;55.838;37.184;2023-05-10T05:36:26;5.22;;;3.17;;
65533;SDS011;53640;55.838;37.184;2023-05-10T05:38:57;5.00;;;2.90;;
65533;SDS011;53640;55.838;37.184;2023-05-10T05:41:23;5.53;;;3.25;;
65533;SDS011;53640;55.838;37.184;2023-05-10T05:43:50;7.97;;;3.33;;
65533;SDS011;53640;55.838;37.184;2023-05-10T05:46:16;10.20;;;3.72;;
65533;SDS011;53640;55.838;37.184;2023-05-10T05:48:43;5.78;;;3.47;;
65533;SDS011;53640;55.838;37.184;2023-05-10T05:51:11;6.43;;;3.20;;
65533;SDS011;53640;55.838;37.184;2023-05-10T05:53:38;7.97;;;3.00;;
65533;SDS011;53640;55.838;37.184;2023-05-10T05:56:05;9.82;;;3.33;;
65533;SDS011;53640;55.838;37.184;2023-05-10T05:58:31;6.78;;;2.75;;
65533;SDS011;53640;55.838;37.184;2023-05-10T06:00:58;6.43;;;3.03;;
65533;SDS011;53640;55.838;37.184;2023-05-10T06:03:25;6.20;;;2.80;;
65533;SDS011;53640;55.838;37.184;2023-05-10T06:05:53;3.10;;;2.42;;
65533;SDS011;53640;55.838;37.184;2023-05-10T06:08:19;6.80;;;3.58;;
65533;SDS011;53640;55.838;37.184;2023-05-10T06:10:46;3.90;;;2.97;;
65533;SDS011;53640;55.838;37.184;2023-05-10T06:13:13;9.27;;;3.05;;
65533;SDS011;53640;55.838;37.184;2023-05-10T06:15:39;5.72;;;3.30;;
65533;SDS011;53640;55.838;37.184;2023-05-10T06:18:06;3.97;;;2.70;;
65533;SDS011;53640;55.838;37.184;2023-05-10T06:20:32;3.00;;;2.38;;
65533;SDS011;53640;55.838;37.184;2023-05-10T06:22:59;3.28;;;2.20;;
65533;SDS011;53640;55.838;37.184;2023-05-10T06:25:29;6.10;;;2.97;;
65533;SDS011;53640;55.838;37.184;2023-05-10T06:27:55;5.13;;;2.10;;
65533;SDS011;53640;55.838;37.184;2023-05-10T06:30:25;5.25;;;2.50;;
65533;SDS011;53640;55.838;37.184;2023-05-10T06:32:54;2.42;;;2.05;;
65533;SDS011;53640;55.838;37.184;2023-05-10T06:35:21;3.00;;;1.80;;
65533;SDS011;53640;55.838;37.184;2023-05-10T06:37:51;5.05;;;2.22;;
65533;SDS011;53640;55.838;37.184;2023-05-10T06:40:19;4.90;;;2.20;;
65533;SDS011;53640;55.838;37.184;2023-05-10T06:42:48;3.08;;;1.55;;
65533;SDS011;53640;55.838;37.184;2023-05-10T06:45:17;7.38;;;2.08;;
65533;SDS011;53640;55.838;37.184;2023-05-10T06:47:44;3.20;;;2.00;;
65533;SDS011;53640;55.838;37.184;2023-05-10T06:50:11;5.32;;;2.03;;
65533;SDS011;53640;55.838;37.184;2023-05-10T06:52:39;2.72;;;1.70;;
65533;SDS011;53640;55.838;37.184;2023-05-10T06:55:06;3.38;;;2.35;;
65533;SDS011;53640;55.838;37.184;2023-05-10T06:57:38;2.55;;;1.80;;
65533;SDS011;53640;55.838;37.184;2023-05-10T07:00:06;2.58;;;1.80;;
65533;SDS011;53640;55.838;37.184;2023-05-10T07:02:34;2.45;;;1.83;;
65533;SDS011;53640;55.838;37.184;2023-05-10T07:05:00;2.08;;;1.85;;
65533;SDS011;53640;55.838;37.184;2023-05-10T07:07:31;2.30;;;2.00;;
65533;SDS011;53640;55.838;37.184;2023-05-10T07:09:58;4.47;;;2.15;;
65533;SDS011;53640;55.838;37.184;2023-05-10T07:12:26;3.50;;;2.13;;
65533;SDS011;53640;55.838;37.184;2023-05-10T07:14:53;2.75;;;1.60;;
65533;SDS011;53640;55.838;37.184;2023-05-10T07:17:20;1.65;;;1.55;;
65533;SDS011;53640;55.838;37.184;2023-05-10T07:19:48;1.85;;;1.75;;
65533;SDS011;53640;55.838;37.184;2023-05-10T07:22:14;6.75;;;1.67;;
65533;SDS011;53640;55.838;37.184;2023-05-10T07:24:41;4.55;;;1.50;;
65533;SDS011;53640;55.838;37.184;2023-05-10T07:27:08;1.92;;;1.60;;
65533;SDS011;53640;55.838;37.184;2023-05-10T07:29:38;2.65;;;2.45;;
65533;SDS011;53640;55.838;37.184;2023-05-10T07:32:14;7.20;;;2.05;;
65533;SDS011;53640;55.838;37.184;2023-05-10T07:34:40;2.80;;;2.17;;
65533;SDS011;53640;55.838;37.184;2023-05-10T07:37:07;2.13;;;1.80;;
65533;SDS011;53640;55.838;37.184;2023-05-10T07:39:33;4.25;;;2.00;;
65533;SDS011;53640;55.838;37.184;2023-05-10T07:50:00;4.63;;;2.30;;
65533;SDS011;53640;55.838;37.184;2023-05-10T07:52:30;2.45;;;1.73;;
65533;SDS011;53640;55.838;37.184;2023-05-10T07:54:58;2.05;;;1.90;;
65533;SDS011;53640;55.838;37.184;2023-05-10T07:57:26;2.10;;;1.90;;
65533;SDS011;53640;55.838;37.184;2023-05-10T07:59:53;2.97;;;1.90;;
65533;SDS011;53640;55.838;37.184;2023-05-10T08:06:49;5.32;;;2.05;;
65533;SDS011;53640;55.838;37.184;2023-05-10T08:09:15;3.85;;;1.80;;
65533;SDS011;53640;55.838;37.184;2023-05-10T08:11:43;2.72;;;1.80;;
65533;SDS011;53640;55.838;37.184;2023-05-10T08:14:12;2.80;;;1.70;;
65533;SDS011;53640;55.838;37.184;2023-05-10T08:16:39;3.83;;;1.85;;
65533;SDS011;53640;55.838;37.184;2023-05-10T08:19:05;2.13;;;1.63;;
65533;SDS011;53640;55.838;37.184;2023-05-10T08:21:35;3.60;;;1.67;;
65533;SDS011;53640;55.838;37.184;2023-05-10T08:24:02;1.65;;;1.40;;
65533;SDS011;53640;55.838;37.184;2023-05-10T08:26:29;2.90;;;1.58;;
65533;SDS011;53640;55.838;37.184;2023-05-10T08:28:55;1.52;;;1.42;;
65533;SDS011;53640;55.838;37.184;2023-05-10T08:31:24;3.83;;;1.70;;
65533;SDS011;53640;55.838;37.184;2023-05-10T08:33:50;1.92;;;1.30;;
65533;SDS011;53640;55.838;37.184;2023-05-10T08:36:18;3.03;;;2.20;;
65533;SDS011;53640;55.838;37.184;2023-05-10T08:38:50;4.35;;;1.60;;
65533;SDS011;53640;55.838;37.184;2023-05-10T08:41:19;1.40;;;1.30;;
65533;SDS011;53640;55.838;37.184;2023-05-10T08:46:20;1.95;;;1.35;;
65533;SDS011;53640;55.838;37.184;2023-05-10T08:48:48;1.85;;;1.52;;
65533;SDS011;53640;55.838;37.184;2023-05-10T08:51:20;1.42;;;1.33;;
65533;SDS011;53640;55.838;37.184;2023-05-10T08:53:49;2.25;;;1.30;;
65533;SDS011;53640;55.838;37.184;2023-05-10T08:56:16;2.35;;;1.42;;
65533;SDS011;53640;55.838;37.184;2023-05-10T08:58:44;2.47;;;1.60;;
65533;SDS011;53640;55.838;37.184;2023-05-10T09:01:11;3.13;;;1.40;;
65533;SDS011;53640;55.838;37.184;2023-05-10T09:07:30;3.50;;;1.25;;
65533;SDS011;53640;55.838;37.184;2023-05-10T09:09:57;2.10;;;1.10;;
65533;SDS011;53640;55.838;37.184;2023-05-10T09:12:24;2.90;;;1.40;;
65533;SDS011;53640;55.838;37.184;2023-05-10T09:14:50;2.17;;;1.30;;
65533;SDS011;53640;55.838;37.184;2023-05-10T09:17:19;1.55;;;1.30;;
65533;SDS011;53640;55.838;37.184;2023-05-10T09:19:49;5.00;;;1.48;;
65533;SDS011;53640;55.838;37.184;2023-05-10T09:22:16;3.67;;;1.20;;
65533;SDS011;53640;55.838;37.184;2023-05-10T09:24:43;1.30;;;1.00;;
65533;SDS011;53640;55.838;37.184;2023-05-10T09:27:11;4.78;;;1.45;;
65533;SDS011;53640;55.838;37.184;2023-05-10T09:29:41;1.50;;;1.27;;
65533;SDS011;53640;55.838;37.184;2023-05-10T09:32:08;4.53;;;1.52;;
65533;SDS011;53640;55.838;37.184;2023-05-10T09:34:34;3.85;;;1.50;;
65533;SDS011;53640;55.838;37.184;2023-05-10T09:37:05;5.53;;;1.60;;
65533;SDS011;53640;55.838;37.184;2023-05-10T09:39:35;3.10;;;1.38;;
65533;SDS011;53640;55.838;37.184;2023-05-10T09:42:06;1.55;;;1.40;;
65533;SDS011;53640;55.838;37.184;2023-05-10T09:44:35;2.47;;;1.50;;
65533;SDS011;53640;55.838;37.184;2023-05-10T09:47:02;7.35;;;1.25;;
65533;SDS011;53640;55.838;37.184;2023-05-10T09:49:29;3.03;;;1.17;;
65533;SDS011;53640;55.838;37.184;2023-05-10T09:52:00;3.50;;;1.13;;
65533;SDS011;53640;55.838;37.184;2023-05-10T09:54:30;1.23;;;1.15;;
65533;SDS011;53640;55.838;37.184;2023-05-10T09:56:57;2.95;;;1.55;;
65533;SDS011;53640;55.838;37.184;2023-05-10T09:59:27;3.50;;;1.60;;
65533;SDS011;53640;55.838;37.184;2023-05-10T10:01:55;6.00;;;1.42;;
65533;SDS011;53640;55.838;37.184;2023-05-10T10:04:23;15.05;;;6.30;;
65533;SDS011;53640;55.838;37.184;2023-05-10T10:07:00;2.80;;;2.15;;
65533;SDS011;53640;55.838;37.184;2023-05-10T10:09:28;1.35;;;1.20;;
65533;SDS011;53640;55.838;37.184;2023-05-10T10:11:55;1.77;;;1.40;;
65533;SDS011;53640;55.838;37.184;2023-05-10T10:14:23;2.67;;;1.23;;
65533;SDS011;53640;55.838;37.184;2023-05-10T10:16:50;1.38;;;1.25;;
65533;SDS011;53640;55.838;37.184;2023-05-10T10:19:22;2.13;;;1.08;;
65533;SDS011;53640;55.838;37.184;2023-05-10T10:21:52;3.70;;;1.38;;
65533;SDS011;53640;55.838;37.184;2023-05-10T10:24:25;1.40;;;1.30;;
65533;SDS011;53640;55.838;37.184;2023-05-10T10:26:53;1.95;;;1.25;;
65533;SDS011;53640;55.838;37.184;2023-05-10T10:29:31;2.13;;;1.33;;
65533;SDS011;53640;55.838;37.184;2023-05-10T10:34:59;2.20;;;1.73;;
65533;SDS011;53640;55.838;37.184;2023-05-10T10:37:40;4.30;;;1.60;;
65533;SDS011;53640;55.838;37.184;2023-05-10T10:40:24;4.65;;;1.40;;
65533;SDS011;53640;55.838;37.184;2023-05-10T10:42:58;4.60;;;1.50;;
65533;SDS011;53640;55.838;37.184;2023-05-10T10:45:47;2.67;;;1.40;;
65533;SDS011;53640;55.838;37.184;2023-05-10T10:48:34;1.90;;;1.70;;
65533;SDS011;53640;55.838;37.184;2023-05-10T10:51:01;1.25;;;1.15;;
65533;SDS011;53640;55.838;37.184;2023-05-10T10:53:31;2.58;;;1.50;;
65533;SDS011;53640;55.838;37.184;2023-05-10T10:56:05;6.20;;;2.45;;
65533;SDS011;53640;55.838;37.184;2023-05-10T10:58:36;5.40;;;2.40;;
65533;SDS011;53640;55.838;37.184;2023-05-10T11:01:11;3.83;;;1.73;;
65533;SDS011;53640;55.838;37.184;2023-05-10T11:03:55;2.47;;;1.20;;
65533;SDS011;53640;55.838;37.184;2023-05-10T11:06:30;5.15;;;1.52;;
65533;SDS011;53640;55.838;37.184;2023-05-10T11:08:58;7.30;;;1.60;;
65533;SDS011;53640;55.838;37.184;2023-05-10T11:11:25;3.92;;;1.58;;
65533;SDS011;53640;55.838;37.184;2023-05-10T11:13:52;5.53;;;1.70;;
65533;SDS011;53640;55.838;37.184;2023-05-10T11:16:19;1.50;;;1.40;;
65533;SDS011;53640;55.838;37.184;2023-05-10T11:19:01;2.38;;;1.30;;
65533;SDS011;53640;55.838;37.184;2023-05-10T11:21:30;2.22;;;1.27;;
65533;SDS011;53640;55.838;37.184;2023-05-10T11:23:59;2.03;;;1.30;;
65533;SDS011;53640;55.838;37.184;2023-05-10T11:26:35;4.32;;;1.40;;
65533;SDS011;53640;55.838;37.184;2023-05-10T11:29:05;5.88;;;1.63;;
65533;SDS011;53640;55.838;37.184;2023-05-10T11:31:34;3.92;;;1.80;;
65533;SDS011;53640;55.838;37.184;2023-05-10T11:34:01;3.50;;;1.50;;
65533;SDS011;53640;55.838;37.184;2023-05-10T11:36:35;6.50;;;1.90;;
65533;SDS011;53640;55.838;37.184;2023-05-10T11:39:04;1.60;;;1.40;;
65533;SDS011;53640;55.838;37.184;2023-05-10T11:41:32;2.80;;;1.50;;
65533;SDS011;53640;55.838;37.184;2023-05-10T11:43:58;2.63;;;1.30;;
65533;SDS011;53640;55.838;37.184;2023-05-10T11:46:26;2.30;;;1.60;;
65533;SDS011;53640;55.838;37.184;2023-05-10T11:48:58;3.53;;;1.33;;
65533;SDS011;53640;55.838;37.184;2023-05-10T11:51:28;4.72;;;1.75;;
65533;SDS011;53640;55.838;37.184;2023-05-10T11:53:55;1.48;;;1.38;;
65533;SDS011;53640;55.838;37.184;2023-05-10T11:56:22;4.95;;;1.52;;
65533;SDS011;53640;55.838;37.184;2023-05-10T11:58:55;2.10;;;1.88;;
65533;SDS011;53640;55.838;37.184;2023-05-10T12:01:23;2.55;;;1.58;;
65533;SDS011;53640;55.838;37.184;2023-05-10T12:03:51;1.67;;;1.27;;
65533;SDS011;53640;55.838;37.184;2023-05-10T12:06:19;2.40;;;1.70;;
65533;SDS011;53640;55.838;37.184;2023-05-10T12:08:47;2.67;;;1.52;;
65533;SDS011;53640;55.838;37.184;2023-05-10T12:11:18;3.25;;;1.60;;
65533;SDS011;53640;55.838;37.184;2023-05-10T12:13:47;1.98;;;1.30;;
65533;SDS011;53640;55.838;37.184;2023-05-10T12:18:48;2.22;;;1.45;;
65533;SDS011;53640;55.838;37.184;2023-05-10T12:21:20;3.28;;;1.70;;
65533;SDS011;53640;55.838;37.184;2023-05-10T12:23:53;3.72;;;1.60;;
65533;SDS011;53640;55.838;37.184;2023-05-10T12:26:21;2.85;;;1.63;;
65533;SDS011;53640;55.838;37.184;2023-05-10T12:28:49;2.17;;;1.75;;
65533;SDS011;53640;55.838;37.184;2023-05-10T12:31:16;4.10;;;1.40;;
65533;SDS011;53640;55.838;37.184;2023-05-10T12:33:43;2.45;;;1.70;;
65533;SDS011;53640;55.838;37.184;2023-05-10T12:36:12;5.00;;;1.80;;
65533;SDS011;53640;55.838;37.184;2023-05-10T12:38:41;2.65;;;1.60;;
65533;SDS011;53640;55.838;37.184;2023-05-10T12:41:16;1.80;;;1.35;;
65533;SDS011;53640;55.838;37.184;2023-05-10T12:43:44;1.42;;;1.30;;
65533;SDS011;53640;55.838;37.184;2023-05-10T12:46:15;3.17;;;1.40;;
65533;SDS011;53640;55.838;37.184;2023-05-10T12:48:43;1.52;;;1.30;;
65533;SDS011;53640;55.838;37.184;2023-05-10T12:51:12;1.25;;;1.25;;
65533;SDS011;53640;55.838;37.184;2023-05-10T12:53:41;3.20;;;1.60;;
65533;SDS011;53640;55.838;37.184;2023-05-10T12:56:08;4.10;;;1.52;;
65533;SDS011;53640;55.838;37.184;2023-05-10T12:58:35;4.15;;;1.65;;
65533;SDS011;53640;55.838;37.184;2023-05-10T13:01:02;2.80;;;1.30;;
65533;SDS011;53640;55.838;37.184;2023-05-10T13:03:31;2.58;;;1.80;;
65533;SDS011;53640;55.838;37.184;2023-05-10T13:05:57;3.58;;;1.40;;
65533;SDS011;53640;55.838;37.184;2023-05-10T13:08:24;6.05;;;2.05;;
65533;SDS011;53640;55.838;37.184;2023-05-10T13:10:51;1.63;;;1.50;;
65533;SDS011;53640;55.838;37.184;2023-05-10T13:13:18;2.22;;;1.60;;
65533;SDS011;53640;55.838;37.184;2023-05-10T13:15:44;1.50;;;1.33;;
65533;SDS011;53640;55.838;37.184;2023-05-10T13:18:11;1.95;;;1.40;;
65533;SDS011;53640;55.838;37.184;2023-05-10T13:20:37;2.47;;;1.40;;
65533;SDS011;53640;55.838;37.184;2023-05-10T13:23:04;1.60;;;1.50;;
65533;SDS011;53640;55.838;37.184;2023-05-10T13:25:31;2.78;;;1.50;;
65533;SDS011;53640;55.838;37.184;2023-05-10T13:27:58;1.42;;;1.27;;
65533;SDS011;53640;55.838;37.184;2023-05-10T13:30:24;5.63;;;1.45;;
65533;SDS011;53640;55.838;37.184;2023-05-10T13:32:51;1.35;;;1.20;;
65533;SDS011;53640;55.838;37.184;2023-05-10T13:35:17;3.15;;;1.50;;
65533;SDS011;53640;55.838;37.184;2023-05-10T13:37:45;4.32;;;1.65;;
65533;SDS011;53640;55.838;37.184;2023-05-10T13:40:12;2.17;;;1.30;;
65533;SDS011;53640;55.838;37.184;2023-05-10T13:42:39;2.25;;;1.63;;
65533;SDS011;53640;55.838;37.184;2023-05-10T13:45:06;1.90;;;1.60;;
65533;SDS011;53640;55.838;37.184;2023-05-10T13:47:33;9.40;;;1.70;;
65533;SDS011;53640;55.838;37.184;2023-05-10T13:50:00;5.88;;;1.63;;
65533;SDS011;53640;55.838;37.184;2023-05-10T13:52:32;3.22;;;1.08;;
65533;SDS011;53640;55.838;37.184;2023-05-10T13:54:59;1.30;;;1.20;;
65533;SDS011;53640;55.838;37.184;2023-05-10T13:57:25;2.58;;;1.20;;
65533;SDS011;53640;55.838;37.184;2023-05-10T13:59:52;3.35;;;1.40;;
65533;SDS011;53640;55.838;37.184;2023-05-10T14:02:19;2.33;;;1.40;;
65533;SDS011;53640;55.838;37.184;2023-05-10T14:04:45;2.95;;;1.88;;
65533;SDS011;53640;55.838;37.184;2023-05-10T14:07:12;1.60;;;1.50;;
65533;SDS011;53640;55.838;37.184;2023-05-10T14:09:39;3.03;;;1.45;;
65533;SDS011;53640;55.838;37.184;2023-05-10T14:12:05;3.08;;;1.63;;
65533;SDS011;53640;55.838;37.184;2023-05-10T14:14:32;2.90;;;1.42;;
65533;SDS011;53640;55.838;37.184;2023-05-10T14:16:59;3.15;;;1.60;;
65533;SDS011;53640;55.838;37.184;2023-05-10T14:19:29;3.65;;;1.80;;
65533;SDS011;53640;55.838;37.184;2023-05-10T14:21:58;2.25;;;1.35;;
65533;SDS011;53640;55.838;37.184;2023-05-10T14:24:25;2.70;;;1.33;;
65533;SDS011;53640;55.838;37.184;2023-05-10T14:26:52;2.65;;;1.42;;
65533;SDS011;53640;55.838;37.184;2023-05-10T14:29:20;1.60;;;1.42;;
65533;SDS011;53640;55.838;37.184;2023-05-10T14:31:48;3.60;;;1.48;;
65533;SDS011;53640;55.838;37.184;2023-05-10T14:34:14;6.57;;;1.55;;
65533;SDS011;53640;55.838;37.184;2023-05-10T14:36:41;3.30;;;1.80;;
65533;SDS011;53640;55.838;37.184;2023-05-10T14:39:07;1.30;;;1.20;;
65533;SDS011;53640;55.838;37.184;2023-05-10T14:41:35;3.30;;;1.52;;
65533;SDS011;53640;55.838;37.184;2023-05-10T14:44:02;3.33;;;1.27;;
65533;SDS011;53640;55.838;37.184;2023-05-10T14:46:29;5.57;;;2.10;;
65533;SDS011;53640;55.838;37.184;2023-05-10T14:48:58;4.20;;;1.85;;
65533;SDS011;53640;55.838;37.184;2023-05-10T14:51:25;2.80;;;1.50;;
65533;SDS011;53640;55.838;37.184;2023-05-10T14:53:52;2.33;;;1.65;;
65533;SDS011;53640;55.838;37.184;2023-05-10T14:56:18;1.27;;;1.17;;
65533;SDS011;53640;55.838;37.184;2023-05-10T14:58:45;5.82;;;1.55;;
65533;SDS011;53640;55.838;37.184;2023-05-10T15:01:11;5.05;;;1.67;;
65533;SDS011;53640;55.838;37.184;2023-05-10T15:03:37;1.60;;;1.30;;
65533;SDS011;53640;55.838;37.184;2023-05-10T15:06:07;1.20;;;1.17;;
65533;SDS011;53640;55.838;37.184;2023-05-10T15:08:35;1.67;;;1.42;;
65533;SDS011;53640;55.838;37.184;2023-05-10T15:11:01;1.02;;;1.00;;
65533;SDS011;53640;55.838;37.184;2023-05-10T15:13:28;1.60;;;1.20;;
65533;SDS011;53640;55.838;37.184;2023-05-10T15:15:55;3.65;;;1.70;;
65533;SDS011;53640;55.838;37.184;2023-05-10T15:18:21;2.75;;;1.60;;
65533;SDS011;53640;55.838;37.184;2023-05-10T15:20:48;1.58;;;1.48;;
65533;SDS011;53640;55.838;37.184;2023-05-10T15:23:14;2.40;;;1.80;;
65533;SDS011;53640;55.838;37.184;2023-05-10T15:29:24;1.75;;;1.30;;
65533;SDS011;53640;55.838;37.184;2023-05-10T15:31:51;1.50;;;1.40;;
65533;SDS011;53640;55.838;37.184;2023-05-10T15:34:39;1.67;;;1.40;;
65533;SDS011;53640;55.838;37.184;2023-05-10T15:37:07;1.98;;;1.77;;
65533;SDS011;53640;55.838;37.184;2023-05-10T15:39:33;5.95;;;1.70;;
65533;SDS011;53640;55.838;37.184;2023-05-10T15:42:05;3.70;;;2.05;;
65533;SDS011;53640;55.838;37.184;2023-05-10T15:44:32;3.85;;;2.30;;
65533;SDS011;53640;55.838;37.184;2023-05-10T15:47:01;6.53;;;4.82;;
65533;SDS011;53640;55.838;37.184;2023-05-10T15:49:28;11.20;;;6.22;;
65533;SDS011;53640;55.838;37.184;2023-05-10T15:51:55;10.07;;;6.55;;
65533;SDS011;53640;55.838;37.184;2023-05-10T15:54:22;8.60;;;4.47;;
65533;SDS011;53640;55.838;37.184;2023-05-10T15:56:48;7.25;;;4.03;;
65533;SDS011;53640;55.838;37.184;2023-05-10T15:59:14;6.85;;;3.20;;
65533;SDS011;53640;55.838;37.184;2023-05-10T16:01:42;6.22;;;2.90;;
65533;SDS011;53640;55.838;37.184;2023-05-10T16:04:09;3.35;;;2.00;;
65533;SDS011;53640;55.838;37.184;2023-05-10T16:06:35;2.45;;;1.85;;
65533;SDS011;53640;55.838;37.184;2023-05-10T16:09:03;1.77;;;1.58;;
65533;SDS011;53640;55.838;37.184;2023-05-10T16:11:30;2.58;;;1.80;;